London, Minnesota
Current Conditions -  °F | °C
As of 12:31 PM on Monday 22 Dec 2014 (Local Time) from KAEL Reporting Station
Light Rain Light Rain  
Wind Chill: -2°   Ceiling: 400
Heat Index:   Visibility: 1.5mi
Dew Point:   Wind: 12mph
Humidity: 100%   Direction: 140°SE
Pressure: 29.56"   Gusts: 16mph
Location:  43.5439°N, 93.1707°W
Report Text: KAEL 221831Z AUTO 14010G14KT 1 1/2SM -RA OVC004 02/02 A2956 RMK AO2
Loading
Personal Weather Stations






























Interactive Weather Map New forecast layout! Learn more

10-Day Weather Forecast

Advertisements
Track Severe Weather on mobile